sensor_id;sensor_type;location;lat;lon;timestamp;P1;durP1;ratioP1;P2;durP2;ratioP2
3217;SDS011;1621;49.702;8.618;2023-04-03T00:00:12;4.63;;;3.33;;
3217;SDS011;1621;49.702;8.618;2023-04-03T00:02:38;5.27;;;2.70;;
3217;SDS011;1621;49.702;8.618;2023-04-03T00:05:05;7.03;;;3.80;;
3217;SDS011;1621;49.702;8.618;2023-04-03T00:07:32;5.27;;;3.90;;
3217;SDS011;1621;49.702;8.618;2023-04-03T00:09:58;5.83;;;3.70;;
3217;SDS011;1621;49.702;8.618;2023-04-03T00:12:24;5.80;;;3.47;;
3217;SDS011;1621;49.702;8.618;2023-04-03T00:14:51;6.10;;;3.73;;
3217;SDS011;1621;49.702;8.618;2023-04-03T00:17:18;5.40;;;3.70;;
3217;SDS011;1621;49.702;8.618;2023-04-03T00:19:44;11.30;;;4.27;;
3217;SDS011;1621;49.702;8.618;2023-04-03T00:22:11;5.60;;;3.23;;
3217;SDS011;1621;49.702;8.618;2023-04-03T00:24:37;4.07;;;3.00;;
3217;SDS011;1621;49.702;8.618;2023-04-03T00:27:03;7.03;;;3.37;;
3217;SDS011;1621;49.702;8.618;2023-04-03T00:29:29;4.57;;;3.20;;
3217;SDS011;1621;49.702;8.618;2023-04-03T00:31:56;4.63;;;3.03;;
3217;SDS011;1621;49.702;8.618;2023-04-03T00:34:23;5.90;;;3.17;;
3217;SDS011;1621;49.702;8.618;2023-04-03T00:36:50;5.10;;;3.57;;
3217;SDS011;1621;49.702;8.618;2023-04-03T00:39:16;4.53;;;3.47;;
3217;SDS011;1621;49.702;8.618;2023-04-03T00:41:43;6.30;;;3.33;;
3217;SDS011;1621;49.702;8.618;2023-04-03T00:44:19;5.80;;;3.67;;
3217;SDS011;1621;49.702;8.618;2023-04-03T00:46:46;4.60;;;3.30;;
3217;SDS011;1621;49.702;8.618;2023-04-03T00:49:12;4.47;;;3.53;;
3217;SDS011;1621;49.702;8.618;2023-04-03T00:51:39;6.60;;;4.00;;
3217;SDS011;1621;49.702;8.618;2023-04-03T00:54:06;5.87;;;4.10;;
3217;SDS011;1621;49.702;8.618;2023-04-03T00:56:33;4.73;;;3.80;;
3217;SDS011;1621;49.702;8.618;2023-04-03T00:59:02;6.37;;;3.90;;
3217;SDS011;1621;49.702;8.618;2023-04-03T01:01:30;4.50;;;3.50;;
3217;SDS011;1621;49.702;8.618;2023-04-03T01:03:58;7.63;;;3.80;;
3217;SDS011;1621;49.702;8.618;2023-04-03T01:06:26;5.10;;;3.60;;
3217;SDS011;1621;49.702;8.618;2023-04-03T01:08:54;5.03;;;3.27;;
3217;SDS011;1621;49.702;8.618;2023-04-03T01:11:21;6.70;;;3.80;;
3217;SDS011;1621;49.702;8.618;2023-04-03T01:13:47;4.63;;;3.23;;
3217;SDS011;1621;49.702;8.618;2023-04-03T01:16:14;4.30;;;3.43;;
3217;SDS011;1621;49.702;8.618;2023-04-03T01:18:40;6.00;;;3.67;;
3217;SDS011;1621;49.702;8.618;2023-04-03T01:23:52;4.67;;;3.60;;
3217;SDS011;1621;49.702;8.618;2023-04-03T01:26:21;4.60;;;3.57;;
3217;SDS011;1621;49.702;8.618;2023-04-03T01:28:48;12.87;;;3.67;;
3217;SDS011;1621;49.702;8.618;2023-04-03T01:31:15;6.30;;;3.90;;
3217;SDS011;1621;49.702;8.618;2023-04-03T01:33:45;6.00;;;3.57;;
3217;SDS011;1621;49.702;8.618;2023-04-03T01:36:13;6.30;;;3.63;;
3217;SDS011;1621;49.702;8.618;2023-04-03T01:38:40;5.60;;;4.23;;
3217;SDS011;1621;49.702;8.618;2023-04-03T01:41:06;5.90;;;3.30;;
3217;SDS011;1621;49.702;8.618;2023-04-03T01:43:33;6.03;;;3.40;;
3217;SDS011;1621;49.702;8.618;2023-04-03T01:45:59;6.97;;;4.10;;
3217;SDS011;1621;49.702;8.618;2023-04-03T01:48:25;5.60;;;3.70;;
3217;SDS011;1621;49.702;8.618;2023-04-03T01:50:53;4.97;;;4.00;;
3217;SDS011;1621;49.702;8.618;2023-04-03T01:53:19;5.83;;;4.33;;
3217;SDS011;1621;49.702;8.618;2023-04-03T01:55:45;4.77;;;3.70;;
3217;SDS011;1621;49.702;8.618;2023-04-03T01:58:12;5.00;;;3.40;;
3217;SDS011;1621;49.702;8.618;2023-04-03T02:00:38;5.40;;;3.90;;
3217;SDS011;1621;49.702;8.618;2023-04-03T02:03:04;5.17;;;3.43;;
3217;SDS011;1621;49.702;8.618;2023-04-03T02:05:31;5.93;;;4.00;;
3217;SDS011;1621;49.702;8.618;2023-04-03T02:07:59;7.03;;;3.80;;
3217;SDS011;1621;49.702;8.618;2023-04-03T02:10:25;5.57;;;3.60;;
3217;SDS011;1621;49.702;8.618;2023-04-03T02:12:52;6.30;;;3.60;;
3217;SDS011;1621;49.702;8.618;2023-04-03T02:15:18;6.57;;;3.87;;
3217;SDS011;1621;49.702;8.618;2023-04-03T02:17:45;7.90;;;3.97;;
3217;SDS011;1621;49.702;8.618;2023-04-03T02:20:11;9.20;;;3.83;;
3217;SDS011;1621;49.702;8.618;2023-04-03T02:22:37;4.83;;;3.50;;
3217;SDS011;1621;49.702;8.618;2023-04-03T02:25:05;5.27;;;3.33;;
3217;SDS011;1621;49.702;8.618;2023-04-03T02:27:32;4.67;;;3.67;;
3217;SDS011;1621;49.702;8.618;2023-04-03T02:29:58;7.23;;;3.37;;
3217;SDS011;1621;49.702;8.618;2023-04-03T02:32:24;5.90;;;3.20;;
3217;SDS011;1621;49.702;8.618;2023-04-03T02:34:51;5.40;;;3.60;;
3217;SDS011;1621;49.702;8.618;2023-04-03T02:37:17;6.93;;;3.20;;
3217;SDS011;1621;49.702;8.618;2023-04-03T02:39:43;5.67;;;3.53;;
3217;SDS011;1621;49.702;8.618;2023-04-03T02:42:11;4.73;;;3.40;;
3217;SDS011;1621;49.702;8.618;2023-04-03T02:44:37;7.50;;;3.37;;
3217;SDS011;1621;49.702;8.618;2023-04-03T02:47:04;5.77;;;3.37;;
3217;SDS011;1621;49.702;8.618;2023-04-03T02:49:30;4.23;;;3.20;;
3217;SDS011;1621;49.702;8.618;2023-04-03T02:51:56;4.77;;;3.10;;
3217;SDS011;1621;49.702;8.618;2023-04-03T02:54:23;4.43;;;3.40;;
3217;SDS011;1621;49.702;8.618;2023-04-03T02:56:52;6.33;;;3.73;;
3217;SDS011;1621;49.702;8.618;2023-04-03T02:59:20;7.10;;;3.30;;
3217;SDS011;1621;49.702;8.618;2023-04-03T03:01:46;4.73;;;2.90;;
3217;SDS011;1621;49.702;8.618;2023-04-03T03:04:12;5.57;;;3.40;;
3217;SDS011;1621;49.702;8.618;2023-04-03T03:06:39;5.50;;;3.30;;
3217;SDS011;1621;49.702;8.618;2023-04-03T03:09:06;5.00;;;3.27;;
3217;SDS011;1621;49.702;8.618;2023-04-03T03:11:32;5.23;;;3.67;;
3217;SDS011;1621;49.702;8.618;2023-04-03T03:13:58;5.03;;;3.50;;
3217;SDS011;1621;49.702;8.618;2023-04-03T03:16:26;5.07;;;3.60;;
3217;SDS011;1621;49.702;8.618;2023-04-03T03:18:52;4.50;;;3.60;;
3217;SDS011;1621;49.702;8.618;2023-04-03T03:21:19;17.30;;;3.83;;
3217;SDS011;1621;49.702;8.618;2023-04-03T03:23:45;5.50;;;3.57;;
3217;SDS011;1621;49.702;8.618;2023-04-03T03:26:11;4.53;;;3.67;;
3217;SDS011;1621;49.702;8.618;2023-04-03T03:28:38;5.13;;;3.47;;
3217;SDS011;1621;49.702;8.618;2023-04-03T03:31:05;5.00;;;3.60;;
3217;SDS011;1621;49.702;8.618;2023-04-03T03:33:33;8.50;;;4.30;;
3217;SDS011;1621;49.702;8.618;2023-04-03T03:35:59;6.60;;;4.47;;
3217;SDS011;1621;49.702;8.618;2023-04-03T03:38:26;4.63;;;3.77;;
3217;SDS011;1621;49.702;8.618;2023-04-03T03:40:52;6.10;;;4.07;;
3217;SDS011;1621;49.702;8.618;2023-04-03T03:43:18;5.57;;;3.63;;
3217;SDS011;1621;49.702;8.618;2023-04-03T03:45:45;5.53;;;3.80;;
3217;SDS011;1621;49.702;8.618;2023-04-03T03:48:11;5.57;;;3.40;;
3217;SDS011;1621;49.702;8.618;2023-04-03T03:50:39;6.10;;;3.57;;
3217;SDS011;1621;49.702;8.618;2023-04-03T03:53:05;7.73;;;3.80;;
3217;SDS011;1621;49.702;8.618;2023-04-03T03:55:31;5.53;;;4.10;;
3217;SDS011;1621;49.702;8.618;2023-04-03T03:57:57;4.30;;;3.30;;
3217;SDS011;1621;49.702;8.618;2023-04-03T04:00:25;4.73;;;3.53;;
3217;SDS011;1621;49.702;8.618;2023-04-03T04:02:51;7.33;;;3.83;;
3217;SDS011;1621;49.702;8.618;2023-04-03T04:05:17;4.77;;;3.40;;
3217;SDS011;1621;49.702;8.618;2023-04-03T04:07:45;5.60;;;3.70;;
3217;SDS011;1621;49.702;8.618;2023-04-03T04:10:11;9.83;;;4.07;;
3217;SDS011;1621;49.702;8.618;2023-04-03T04:12:38;3.90;;;2.97;;
3217;SDS011;1621;49.702;8.618;2023-04-03T04:15:05;6.40;;;3.30;;
3217;SDS011;1621;49.702;8.618;2023-04-03T04:17:31;4.07;;;3.30;;
3217;SDS011;1621;49.702;8.618;2023-04-03T04:19:59;4.63;;;3.70;;
3217;SDS011;1621;49.702;8.618;2023-04-03T04:22:25;6.50;;;3.30;;
3217;SDS011;1621;49.702;8.618;2023-04-03T04:24:53;4.63;;;3.70;;
3217;SDS011;1621;49.702;8.618;2023-04-03T04:27:19;6.90;;;3.80;;
3217;SDS011;1621;49.702;8.618;2023-04-03T04:29:45;5.77;;;4.00;;
3217;SDS011;1621;49.702;8.618;2023-04-03T04:32:12;6.90;;;3.63;;
3217;SDS011;1621;49.702;8.618;2023-04-03T04:34:38;12.97;;;3.80;;
3217;SDS011;1621;49.702;8.618;2023-04-03T04:37:04;5.90;;;3.73;;
3217;SDS011;1621;49.702;8.618;2023-04-03T04:39:31;6.03;;;4.43;;
3217;SDS011;1621;49.702;8.618;2023-04-03T04:41:58;5.77;;;3.67;;
3217;SDS011;1621;49.702;8.618;2023-04-03T04:44:25;4.70;;;3.60;;
3217;SDS011;1621;49.702;8.618;2023-04-03T04:46:51;4.40;;;3.60;;
3217;SDS011;1621;49.702;8.618;2023-04-03T04:49:17;5.77;;;3.67;;
3217;SDS011;1621;49.702;8.618;2023-04-03T04:51:43;5.50;;;3.63;;
3217;SDS011;1621;49.702;8.618;2023-04-03T04:54:11;6.53;;;3.77;;
3217;SDS011;1621;49.702;8.618;2023-04-03T04:56:37;5.63;;;3.80;;
3217;SDS011;1621;49.702;8.618;2023-04-03T04:59:05;7.17;;;4.13;;
3217;SDS011;1621;49.702;8.618;2023-04-03T05:01:31;8.23;;;4.70;;
3217;SDS011;1621;49.702;8.618;2023-04-03T05:03:57;6.47;;;4.00;;
3217;SDS011;1621;49.702;8.618;2023-04-03T05:06:24;5.93;;;4.10;;
3217;SDS011;1621;49.702;8.618;2023-04-03T05:08:50;4.40;;;3.30;;
3217;SDS011;1621;49.702;8.618;2023-04-03T05:11:16;5.50;;;3.40;;
3217;SDS011;1621;49.702;8.618;2023-04-03T05:13:43;7.70;;;3.73;;
3217;SDS011;1621;49.702;8.618;2023-04-03T05:16:10;7.67;;;4.40;;
3217;SDS011;1621;49.702;8.618;2023-04-03T05:18:37;5.97;;;4.40;;
3217;SDS011;1621;49.702;8.618;2023-04-03T05:21:03;7.87;;;4.33;;
3217;SDS011;1621;49.702;8.618;2023-04-03T05:23:30;6.53;;;4.23;;
3217;SDS011;1621;49.702;8.618;2023-04-03T05:25:56;6.10;;;3.90;;
3217;SDS011;1621;49.702;8.618;2023-04-03T05:28:23;5.77;;;3.87;;
3217;SDS011;1621;49.702;8.618;2023-04-03T05:30:52;6.33;;;4.00;;
3217;SDS011;1621;49.702;8.618;2023-04-03T05:33:20;6.77;;;4.43;;
3217;SDS011;1621;49.702;8.618;2023-04-03T05:35:46;7.30;;;4.23;;
3217;SDS011;1621;49.702;8.618;2023-04-03T05:38:13;6.93;;;4.10;;
3217;SDS011;1621;49.702;8.618;2023-04-03T05:40:40;6.20;;;4.10;;
3217;SDS011;1621;49.702;8.618;2023-04-03T05:43:06;7.87;;;4.13;;
3217;SDS011;1621;49.702;8.618;2023-04-03T05:45:32;6.53;;;3.93;;
3217;SDS011;1621;49.702;8.618;2023-04-03T05:47:59;7.67;;;4.60;;
3217;SDS011;1621;49.702;8.618;2023-04-03T05:50:27;5.90;;;3.43;;
3217;SDS011;1621;49.702;8.618;2023-04-03T05:52:54;5.47;;;4.30;;
3217;SDS011;1621;49.702;8.618;2023-04-03T05:55:22;5.80;;;3.70;;
3217;SDS011;1621;49.702;8.618;2023-04-03T05:57:48;6.10;;;3.80;;
3217;SDS011;1621;49.702;8.618;2023-04-03T06:00:15;4.10;;;3.17;;
3217;SDS011;1621;49.702;8.618;2023-04-03T06:02:42;7.67;;;4.27;;
3217;SDS011;1621;49.702;8.618;2023-04-03T06:05:08;9.13;;;4.30;;
3217;SDS011;1621;49.702;8.618;2023-04-03T06:07:37;6.40;;;4.30;;
3217;SDS011;1621;49.702;8.618;2023-04-03T06:10:04;5.80;;;3.23;;
3217;SDS011;1621;49.702;8.618;2023-04-03T06:12:31;6.60;;;3.77;;
3217;SDS011;1621;49.702;8.618;2023-04-03T06:14:58;5.47;;;3.50;;
3217;SDS011;1621;49.702;8.618;2023-04-03T06:17:25;4.77;;;3.00;;
3217;SDS011;1621;49.702;8.618;2023-04-03T06:19:52;5.50;;;3.30;;
3217;SDS011;1621;49.702;8.618;2023-04-03T06:22:18;6.20;;;3.20;;
3217;SDS011;1621;49.702;8.618;2023-04-03T06:24:46;7.40;;;3.33;;
3217;SDS011;1621;49.702;8.618;2023-04-03T06:27:12;4.43;;;3.40;;
3217;SDS011;1621;49.702;8.618;2023-04-03T06:29:39;6.03;;;3.30;;
3217;SDS011;1621;49.702;8.618;2023-04-03T06:32:05;6.17;;;3.50;;
3217;SDS011;1621;49.702;8.618;2023-04-03T06:34:31;5.83;;;3.17;;
3217;SDS011;1621;49.702;8.618;2023-04-03T06:36:58;6.43;;;3.70;;
3217;SDS011;1621;49.702;8.618;2023-04-03T06:39:24;6.70;;;3.03;;
3217;SDS011;1621;49.702;8.618;2023-04-03T06:41:52;8.27;;;3.07;;
3217;SDS011;1621;49.702;8.618;2023-04-03T06:44:18;5.30;;;3.20;;
3217;SDS011;1621;49.702;8.618;2023-04-03T06:46:45;7.90;;;3.93;;
3217;SDS011;1621;49.702;8.618;2023-04-03T06:49:11;5.13;;;3.80;;
3217;SDS011;1621;49.702;8.618;2023-04-03T06:51:38;6.60;;;3.70;;
3217;SDS011;1621;49.702;8.618;2023-04-03T06:54:04;6.53;;;3.50;;
3217;SDS011;1621;49.702;8.618;2023-04-03T06:56:31;4.33;;;3.13;;
3217;SDS011;1621;49.702;8.618;2023-04-03T06:58:59;4.97;;;3.13;;
3217;SDS011;1621;49.702;8.618;2023-04-03T07:01:26;5.70;;;3.10;;
3217;SDS011;1621;49.702;8.618;2023-04-03T07:03:53;5.93;;;3.37;;
3217;SDS011;1621;49.702;8.618;2023-04-03T07:06:19;11.20;;;4.20;;
3217;SDS011;1621;49.702;8.618;2023-04-03T07:08:46;8.07;;;4.00;;
3217;SDS011;1621;49.702;8.618;2023-04-03T07:11:13;6.90;;;3.90;;
3217;SDS011;1621;49.702;8.618;2023-04-03T07:13:39;5.47;;;3.13;;
3217;SDS011;1621;49.702;8.618;2023-04-03T07:16:07;5.33;;;3.70;;
3217;SDS011;1621;49.702;8.618;2023-04-03T07:18:34;5.10;;;2.70;;
3217;SDS011;1621;49.702;8.618;2023-04-03T07:21:00;6.17;;;3.67;;
3217;SDS011;1621;49.702;8.618;2023-04-03T07:23:27;4.80;;;3.10;;
3217;SDS011;1621;49.702;8.618;2023-04-03T07:25:53;5.20;;;3.07;;
3217;SDS011;1621;49.702;8.618;2023-04-03T07:28:20;7.10;;;3.10;;
3217;SDS011;1621;49.702;8.618;2023-04-03T07:30:48;5.83;;;2.67;;
3217;SDS011;1621;49.702;8.618;2023-04-03T07:33:16;7.53;;;3.90;;
3217;SDS011;1621;49.702;8.618;2023-04-03T07:35:43;6.33;;;3.30;;
3217;SDS011;1621;49.702;8.618;2023-04-03T07:38:10;4.70;;;3.23;;
3217;SDS011;1621;49.702;8.618;2023-04-03T07:40:37;6.63;;;2.87;;
3217;SDS011;1621;49.702;8.618;2023-04-03T07:43:03;4.13;;;2.80;;
3217;SDS011;1621;49.702;8.618;2023-04-03T07:45:30;7.33;;;3.07;;
3217;SDS011;1621;49.702;8.618;2023-04-03T07:47:56;7.50;;;3.67;;
3217;SDS011;1621;49.702;8.618;2023-04-03T07:50:24;5.13;;;3.23;;
3217;SDS011;1621;49.702;8.618;2023-04-03T07:52:51;6.60;;;3.60;;
3217;SDS011;1621;49.702;8.618;2023-04-03T07:55:19;6.57;;;2.87;;
3217;SDS011;1621;49.702;8.618;2023-04-03T07:57:45;3.90;;;2.40;;
3217;SDS011;1621;49.702;8.618;2023-04-03T08:00:12;4.20;;;2.73;;
3217;SDS011;1621;49.702;8.618;2023-04-03T08:02:39;4.83;;;2.53;;
3217;SDS011;1621;49.702;8.618;2023-04-03T08:05:06;9.40;;;2.83;;
3217;SDS011;1621;49.702;8.618;2023-04-03T08:07:34;5.10;;;2.40;;
3217;SDS011;1621;49.702;8.618;2023-04-03T08:10:02;6.57;;;2.50;;
3217;SDS011;1621;49.702;8.618;2023-04-03T08:12:29;7.57;;;3.17;;
3217;SDS011;1621;49.702;8.618;2023-04-03T08:14:56;7.67;;;2.50;;
3217;SDS011;1621;49.702;8.618;2023-04-03T08:17:23;4.63;;;2.87;;
3217;SDS011;1621;49.702;8.618;2023-04-03T08:19:49;4.50;;;2.60;;
3217;SDS011;1621;49.702;8.618;2023-04-03T08:22:16;4.17;;;2.57;;
3217;SDS011;1621;49.702;8.618;2023-04-03T08:24:43;5.97;;;2.50;;
3217;SDS011;1621;49.702;8.618;2023-04-03T08:27:10;4.73;;;2.17;;
3217;SDS011;1621;49.702;8.618;2023-04-03T08:29:36;6.07;;;2.43;;
3217;SDS011;1621;49.702;8.618;2023-04-03T08:32:02;3.77;;;2.10;;
3217;SDS011;1621;49.702;8.618;2023-04-03T08:34:29;5.10;;;2.50;;
3217;SDS011;1621;49.702;8.618;2023-04-03T08:36:55;4.10;;;2.40;;
3217;SDS011;1621;49.702;8.618;2023-04-03T08:39:22;4.47;;;2.17;;
3217;SDS011;1621;49.702;8.618;2023-04-03T08:41:49;4.20;;;2.33;;
3217;SDS011;1621;49.702;8.618;2023-04-03T08:44:18;4.53;;;1.90;;
3217;SDS011;1621;49.702;8.618;2023-04-03T08:46:51;3.43;;;1.83;;
3217;SDS011;1621;49.702;8.618;2023-04-03T08:49:21;4.97;;;2.43;;
3217;SDS011;1621;49.702;8.618;2023-04-03T08:51:49;3.77;;;1.97;;
3217;SDS011;1621;49.702;8.618;2023-04-03T08:54:19;4.77;;;2.07;;
3217;SDS011;1621;49.702;8.618;2023-04-03T08:56:46;8.23;;;2.60;;
3217;SDS011;1621;49.702;8.618;2023-04-03T08:59:14;4.87;;;1.97;;
3217;SDS011;1621;49.702;8.618;2023-04-03T09:01:45;3.63;;;1.80;;
3217;SDS011;1621;49.702;8.618;2023-04-03T09:04:12;3.83;;;1.73;;
3217;SDS011;1621;49.702;8.618;2023-04-03T09:06:39;2.87;;;1.80;;
3217;SDS011;1621;49.702;8.618;2023-04-03T09:09:11;3.33;;;1.97;;
3217;SDS011;1621;49.702;8.618;2023-04-03T09:11:42;2.93;;;1.60;;
3217;SDS011;1621;49.702;8.618;2023-04-03T09:14:12;4.70;;;1.80;;
3217;SDS011;1621;49.702;8.618;2023-04-03T09:16:48;4.13;;;2.37;;
3217;SDS011;1621;49.702;8.618;2023-04-03T09:19:17;3.40;;;1.90;;
3217;SDS011;1621;49.702;8.618;2023-04-03T09:21:47;3.30;;;2.03;;
3217;SDS011;1621;49.702;8.618;2023-04-03T09:24:14;4.87;;;2.10;;
3217;SDS011;1621;49.702;8.618;2023-04-03T09:26:42;3.43;;;1.77;;
3217;SDS011;1621;49.702;8.618;2023-04-03T09:29:10;4.90;;;1.87;;
3217;SDS011;1621;49.702;8.618;2023-04-03T09:31:41;3.57;;;1.70;;
3217;SDS011;1621;49.702;8.618;2023-04-03T09:34:13;2.90;;;1.70;;
3217;SDS011;1621;49.702;8.618;2023-04-03T09:36:43;5.93;;;2.40;;
3217;SDS011;1621;49.702;8.618;2023-04-03T09:39:11;7.90;;;2.40;;
3217;SDS011;1621;49.702;8.618;2023-04-03T09:41:38;5.87;;;2.23;;
3217;SDS011;1621;49.702;8.618;2023-04-03T09:44:17;2.37;;;1.50;;
3217;SDS011;1621;49.702;8.618;2023-04-03T09:46:43;3.83;;;2.00;;
3217;SDS011;1621;49.702;8.618;2023-04-03T09:49:12;3.20;;;1.80;;
3217;SDS011;1621;49.702;8.618;2023-04-03T09:51:38;3.70;;;1.67;;
3217;SDS011;1621;49.702;8.618;2023-04-03T09:57:07;3.23;;;1.60;;
3217;SDS011;1621;49.702;8.618;2023-04-03T09:59:33;3.00;;;1.60;;
3217;SDS011;1621;49.702;8.618;2023-04-03T10:02:00;2.40;;;1.43;;
3217;SDS011;1621;49.702;8.618;2023-04-03T10:04:38;3.90;;;1.77;;
3217;SDS011;1621;49.702;8.618;2023-04-03T10:07:30;3.07;;;1.90;;
3217;SDS011;1621;49.702;8.618;2023-04-03T10:09:55;3.70;;;2.17;;
3217;SDS011;1621;49.702;8.618;2023-04-03T10:12:22;2.53;;;1.37;;
3217;SDS011;1621;49.702;8.618;2023-04-03T10:14:53;2.50;;;1.60;;
3217;SDS011;1621;49.702;8.618;2023-04-03T10:17:21;3.13;;;1.53;;
3217;SDS011;1621;49.702;8.618;2023-04-03T10:19:52;5.07;;;1.90;;
3217;SDS011;1621;49.702;8.618;2023-04-03T10:22:22;5.47;;;1.80;;
3217;SDS011;1621;49.702;8.618;2023-04-03T10:24:52;4.33;;;1.90;;
3217;SDS011;1621;49.702;8.618;2023-04-03T10:27:22;4.10;;;1.70;;
3217;SDS011;1621;49.702;8.618;2023-04-03T10:29:54;3.10;;;1.83;;
3217;SDS011;1621;49.702;8.618;2023-04-03T10:32:36;2.60;;;1.50;;
3217;SDS011;1621;49.702;8.618;2023-04-03T10:35:08;3.23;;;1.90;;
3217;SDS011;1621;49.702;8.618;2023-04-03T10:37:41;2.83;;;1.60;;
3217;SDS011;1621;49.702;8.618;2023-04-03T10:40:15;8.50;;;2.30;;
3217;SDS011;1621;49.702;8.618;2023-04-03T10:42:46;4.53;;;1.80;;
3217;SDS011;1621;49.702;8.618;2023-04-03T10:45:17;4.50;;;1.93;;
3217;SDS011;1621;49.702;8.618;2023-04-03T10:47:46;3.80;;;1.70;;
3217;SDS011;1621;49.702;8.618;2023-04-03T10:50:25;4.13;;;1.80;;
3217;SDS011;1621;49.702;8.618;2023-04-03T10:52:53;4.00;;;1.70;;
3217;SDS011;1621;49.702;8.618;2023-04-03T10:55:24;3.13;;;1.60;;
3217;SDS011;1621;49.702;8.618;2023-04-03T10:57:54;4.53;;;2.00;;
3217;SDS011;1621;49.702;8.618;2023-04-03T11:00:26;3.80;;;1.80;;
3217;SDS011;1621;49.702;8.618;2023-04-03T11:02:56;3.20;;;1.70;;
3217;SDS011;1621;49.702;8.618;2023-04-03T11:05:28;4.73;;;1.87;;
3217;SDS011;1621;49.702;8.618;2023-04-03T11:07:57;2.23;;;1.33;;
3217;SDS011;1621;49.702;8.618;2023-04-03T11:10:30;4.10;;;1.97;;
3217;SDS011;1621;49.702;8.618;2023-04-03T11:13:01;3.40;;;1.60;;
3217;SDS011;1621;49.702;8.618;2023-04-03T11:15:29;3.50;;;1.63;;
3217;SDS011;1621;49.702;8.618;2023-04-03T11:17:58;3.07;;;1.83;;
3217;SDS011;1621;49.702;8.618;2023-04-03T11:20:28;5.67;;;1.80;;
3217;SDS011;1621;49.702;8.618;2023-04-03T11:22:58;3.67;;;1.97;;
3217;SDS011;1621;49.702;8.618;2023-04-03T11:25:26;3.13;;;1.63;;
3217;SDS011;1621;49.702;8.618;2023-04-03T11:27:56;5.97;;;1.80;;
3217;SDS011;1621;49.702;8.618;2023-04-03T11:30:23;3.70;;;1.80;;
3217;SDS011;1621;49.702;8.618;2023-04-03T11:32:58;3.43;;;1.87;;
3217;SDS011;1621;49.702;8.618;2023-04-03T11:35:28;3.57;;;1.60;;
3217;SDS011;1621;49.702;8.618;2023-04-03T11:37:55;4.43;;;1.30;;
3217;SDS011;1621;49.702;8.618;2023-04-03T11:40:22;4.00;;;1.57;;
3217;SDS011;1621;49.702;8.618;2023-04-03T11:42:52;3.70;;;1.90;;
3217;SDS011;1621;49.702;8.618;2023-04-03T11:48:00;2.50;;;1.50;;
3217;SDS011;1621;49.702;8.618;2023-04-03T11:50:31;3.80;;;2.13;;
3217;SDS011;1621;49.702;8.618;2023-04-03T11:53:03;4.60;;;2.00;;
3217;SDS011;1621;49.702;8.618;2023-04-03T11:55:41;5.20;;;1.80;;
3217;SDS011;1621;49.702;8.618;2023-04-03T11:58:12;3.87;;;1.80;;
3217;SDS011;1621;49.702;8.618;2023-04-03T12:00:52;4.10;;;1.40;;
3217;SDS011;1621;49.702;8.618;2023-04-03T12:09:04;7.40;;;2.53;;
3217;SDS011;1621;49.702;8.618;2023-04-03T12:11:41;3.57;;;1.83;;
3217;SDS011;1621;49.702;8.618;2023-04-03T12:14:12;2.90;;;1.63;;
3217;SDS011;1621;49.702;8.618;2023-04-03T12:16:42;4.03;;;1.90;;
3217;SDS011;1621;49.702;8.618;2023-04-03T12:22:07;3.60;;;1.53;;
3217;SDS011;1621;49.702;8.618;2023-04-03T12:24:35;2.77;;;1.40;;
3217;SDS011;1621;49.702;8.618;2023-04-03T12:27:18;4.73;;;1.77;;
3217;SDS011;1621;49.702;8.618;2023-04-03T12:29:47;4.17;;;1.90;;
3217;SDS011;1621;49.702;8.618;2023-04-03T12:32:19;5.90;;;1.97;;
3217;SDS011;1621;49.702;8.618;2023-04-03T12:34:54;5.37;;;1.90;;
3217;SDS011;1621;49.702;8.618;2023-04-03T12:37:26;2.20;;;1.50;;
3217;SDS011;1621;49.702;8.618;2023-04-03T12:40:00;3.17;;;1.90;;
3217;SDS011;1621;49.702;8.618;2023-04-03T12:45:17;2.83;;;1.57;;
3217;SDS011;1621;49.702;8.618;2023-04-03T12:47:45;4.00;;;1.93;;
3217;SDS011;1621;49.702;8.618;2023-04-03T12:50:17;3.77;;;1.50;;
3217;SDS011;1621;49.702;8.618;2023-04-03T12:52:45;3.70;;;1.67;;
3217;SDS011;1621;49.702;8.618;2023-04-03T12:55:15;4.20;;;1.90;;
3217;SDS011;1621;49.702;8.618;2023-04-03T12:57:42;4.50;;;1.80;;
3217;SDS011;1621;49.702;8.618;2023-04-03T13:03:04;3.87;;;1.70;;
3217;SDS011;1621;49.702;8.618;2023-04-03T13:05:32;3.67;;;1.80;;
3217;SDS011;1621;49.702;8.618;2023-04-03T13:07:59;3.30;;;1.53;;
3217;SDS011;1621;49.702;8.618;2023-04-03T13:10:28;3.67;;;1.70;;
3217;SDS011;1621;49.702;8.618;2023-04-03T13:12:55;5.53;;;1.93;;
3217;SDS011;1621;49.702;8.618;2023-04-03T13:15:22;3.43;;;1.87;;
3217;SDS011;1621;49.702;8.618;2023-04-03T13:17:49;5.10;;;2.20;;
3217;SDS011;1621;49.702;8.618;2023-04-03T13:20:19;3.70;;;1.60;;
3217;SDS011;1621;49.702;8.618;2023-04-03T13:22:49;2.90;;;1.50;;
3217;SDS011;1621;49.702;8.618;2023-04-03T13:25:17;5.63;;;1.83;;
3217;SDS011;1621;49.702;8.618;2023-04-03T13:27:46;3.07;;;1.60;;
3217;SDS011;1621;49.702;8.618;2023-04-03T13:30:27;2.77;;;1.47;;
3217;SDS011;1621;49.702;8.618;2023-04-03T13:32:54;4.93;;;1.87;;
3217;SDS011;1621;49.702;8.618;2023-04-03T13:35:25;2.90;;;1.80;;
3217;SDS011;1621;49.702;8.618;2023-04-03T13:37:53;4.27;;;2.43;;
3217;SDS011;1621;49.702;8.618;2023-04-03T13:40:20;3.60;;;1.80;;
3217;SDS011;1621;49.702;8.618;2023-04-03T13:42:48;3.00;;;1.43;;
3217;SDS011;1621;49.702;8.618;2023-04-03T13:45:25;3.13;;;1.73;;
3217;SDS011;1621;49.702;8.618;2023-04-03T13:47:53;4.97;;;2.10;;
3217;SDS011;1621;49.702;8.618;2023-04-03T13:50:32;4.00;;;2.03;;
3217;SDS011;1621;49.702;8.618;2023-04-03T13:53:00;3.97;;;1.83;;
3217;SDS011;1621;49.702;8.618;2023-04-03T13:55:27;2.40;;;1.63;;
3217;SDS011;1621;49.702;8.618;2023-04-03T13:57:57;2.77;;;1.80;;
3217;SDS011;1621;49.702;8.618;2023-04-03T14:00:32;3.00;;;1.67;;
3217;SDS011;1621;49.702;8.618;2023-04-03T14:03:00;2.70;;;1.33;;
3217;SDS011;1621;49.702;8.618;2023-04-03T14:05:26;2.97;;;1.53;;
3217;SDS011;1621;49.702;8.618;2023-04-03T14:07:53;2.40;;;1.53;;
3217;SDS011;1621;49.702;8.618;2023-04-03T14:10:19;2.17;;;1.43;;
3217;SDS011;1621;49.702;8.618;2023-04-03T14:12:46;3.63;;;2.00;;
3217;SDS011;1621;49.702;8.618;2023-04-03T14:15:17;4.10;;;2.00;;
3217;SDS011;1621;49.702;8.618;2023-04-03T14:17:44;3.37;;;1.90;;
3217;SDS011;1621;49.702;8.618;2023-04-03T14:20:13;4.30;;;1.60;;
3217;SDS011;1621;49.702;8.618;2023-04-03T14:22:40;3.70;;;1.80;;
3217;SDS011;1621;49.702;8.618;2023-04-03T14:25:06;3.53;;;1.80;;
3217;SDS011;1621;49.702;8.618;2023-04-03T14:27:34;4.57;;;2.20;;
3217;SDS011;1621;49.702;8.618;2023-04-03T14:30:02;3.03;;;1.67;;
3217;SDS011;1621;49.702;8.618;2023-04-03T14:32:30;2.90;;;1.60;;
3217;SDS011;1621;49.702;8.618;2023-04-03T14:34:56;3.50;;;1.80;;
3217;SDS011;1621;49.702;8.618;2023-04-03T14:37:24;3.50;;;1.77;;
3217;SDS011;1621;49.702;8.618;2023-04-03T14:39:51;2.90;;;1.50;;
3217;SDS011;1621;49.702;8.618;2023-04-03T14:42:20;2.93;;;1.50;;
3217;SDS011;1621;49.702;8.618;2023-04-03T14:44:47;2.80;;;1.60;;
3217;SDS011;1621;49.702;8.618;2023-04-03T14:47:14;6.93;;;1.70;;
3217;SDS011;1621;49.702;8.618;2023-04-03T14:49:43;3.07;;;1.70;;
3217;SDS011;1621;49.702;8.618;2023-04-03T14:52:14;3.33;;;1.90;;
3217;SDS011;1621;49.702;8.618;2023-04-03T14:54:42;2.37;;;1.50;;
3217;SDS011;1621;49.702;8.618;2023-04-03T14:57:08;2.57;;;1.60;;
3217;SDS011;1621;49.702;8.618;2023-04-03T14:59:36;4.60;;;1.60;;
3217;SDS011;1621;49.702;8.618;2023-04-03T15:02:05;6.07;;;1.80;;
3217;SDS011;1621;49.702;8.618;2023-04-03T15:04:36;3.00;;;1.70;;
3217;SDS011;1621;49.702;8.618;2023-04-03T15:07:04;3.13;;;1.73;;
3217;SDS011;1621;49.702;8.618;2023-04-03T15:09:30;3.70;;;1.60;;
3217;SDS011;1621;49.702;8.618;2023-04-03T15:11:56;2.83;;;1.63;;
3217;SDS011;1621;49.702;8.618;2023-04-03T15:14:23;2.93;;;1.40;;
3217;SDS011;1621;49.702;8.618;2023-04-03T15:16:49;2.37;;;1.50;;
3217;SDS011;1621;49.702;8.618;2023-04-03T15:19:15;2.80;;;1.67;;
3217;SDS011;1621;49.702;8.618;2023-04-03T15:21:42;2.50;;;1.33;;
3217;SDS011;1621;49.702;8.618;2023-04-03T15:24:09;2.83;;;1.50;;
3217;SDS011;1621;49.702;8.618;2023-04-03T15:26:36;3.50;;;1.70;;
3217;SDS011;1621;49.702;8.618;2023-04-03T15:29:03;3.40;;;1.60;;
3217;SDS011;1621;49.702;8.618;2023-04-03T15:31:29;4.23;;;1.60;;
3217;SDS011;1621;49.702;8.618;2023-04-03T15:33:56;2.53;;;1.40;;
3217;SDS011;1621;49.702;8.618;2023-04-03T15:36:22;3.77;;;1.63;;
3217;SDS011;1621;49.702;8.618;2023-04-03T15:38:49;2.77;;;1.50;;
3217;SDS011;1621;49.702;8.618;2023-04-03T15:41:16;3.23;;;1.60;;